Time;durP1;ratioP1;P1;durP2;ratioP2;P2;SDS_P1;SDS_P2;PMS_P1;PMS_P2;Temp;Humidity;BMP_temperature;BMP_pressure;BME280_temperature;BME280_humidity;BME280_pressure;Samples;Min_cycle;Max_cycle;Signal;HPM_P1;HPM_P2
2021/03/21 00:01:43;;;;;;;17.80;11.25;;;5.40;99.90;;;6.51;89.23;101350.00;5002324;28;20030;-85
2021/03/21 00:04:15;;;;;;;16.67;11.88;;;5.40;99.90;;;6.54;89.32;101348.53;5002048;28;20086;-85
2021/03/21 00:06:42;;;;;;;14.43;10.90;;;5.50;99.90;;;6.58;89.12;101341.25;5000641;28;20389;-84
2021/03/21 00:09:10;;;;;;;14.77;11.77;;;5.50;99.90;;;6.57;89.04;101345.97;4983015;28;20048;-85
2021/03/21 00:11:38;;;;;;;17.05;12.25;;;5.50;99.90;;;6.61;88.85;101344.19;4996394;28;20027;-86
2021/03/21 00:14:06;;;;;;;16.85;12.15;;;5.50;99.90;;;6.64;89.06;101340.78;4997221;28;20039;-85
2021/03/21 00:16:35;;;;;;;19.40;13.65;;;5.50;99.90;;;6.57;89.72;101337.63;4996175;28;20038;-84
2021/03/21 00:19:06;;;;;;;17.50;13.27;;;5.50;99.90;;;6.57;89.54;101334.84;4980695;28;20066;-86
2021/03/21 00:21:34;;;;;;;17.50;12.27;;;5.50;99.90;;;6.63;89.08;101336.38;4979865;28;20035;-85
2021/03/21 00:24:05;;;;;;;19.23;13.93;;;5.50;99.90;;;6.60;89.25;101337.00;4980086;28;20122;-86
2021/03/21 00:26:31;;;;;;;21.10;15.20;;;5.50;99.90;;;6.67;89.11;101333.78;4981222;28;20035;-83
2021/03/21 00:28:59;;;;;;;19.02;13.43;;;5.50;99.90;;;6.58;89.20;101333.69;4981494;28;20038;-82
2021/03/21 00:31:25;;;;;;;18.42;13.57;;;5.50;99.90;;;6.61;89.29;101338.66;4979962;28;20046;-81
2021/03/21 00:33:51;;;;;;;19.38;14.48;;;5.50;99.90;;;6.59;89.80;101340.91;4979576;28;20486;-84
2021/03/21 00:36:17;;;;;;;21.65;14.70;;;5.50;99.90;;;6.63;89.50;101336.38;4979102;28;20034;-86
2021/03/21 00:38:51;;;;;;;19.63;14.38;;;5.50;99.90;;;6.57;89.67;101342.38;4978931;28;20155;-84
2021/03/21 00:41:25;;;;;;;19.20;14.50;;;5.50;99.90;;;6.60;89.85;101350.88;4980633;28;20031;-84
2021/03/21 00:43:54;;;;;;;21.88;14.75;;;5.50;99.90;;;6.62;89.54;101339.44;4979246;28;20170;-84
2021/03/21 00:46:21;;;;;;;21.23;14.40;;;5.50;99.90;;;6.60;89.61;101333.41;4995224;28;20035;-84
2021/03/21 00:48:47;;;;;;;19.35;14.43;;;5.40;99.90;;;6.61;89.83;101330.31;4995408;28;20077;-86
2021/03/21 00:51:16;;;;;;;20.40;15.07;;;5.40;99.90;;;6.55;89.99;101328.78;4978498;28;20039;-86
2021/03/21 00:53:44;;;;;;;18.10;13.73;;;5.40;99.90;;;6.62;89.51;101328.34;4980992;28;20036;-83
2021/03/21 00:56:28;;;;;;;21.40;14.13;;;5.50;99.90;;;6.59;89.69;101324.25;4980169;28;20029;-86
2021/03/21 00:58:54;;;;;;;21.83;15.27;;;5.50;99.90;;;6.60;89.43;101323.13;4978809;28;20039;-84
2021/03/21 01:01:21;;;;;;;21.38;13.80;;;5.40;99.90;;;6.54;90.15;101316.06;4980050;28;20444;-85
2021/03/21 01:03:47;;;;;;;22.38;15.55;;;5.40;99.90;;;6.56;90.47;101322.09;4979098;28;20050;-86
2021/03/21 01:06:13;;;;;;;24.73;16.45;;;5.40;99.90;;;6.63;90.82;101316.13;4978739;28;20065;-83
2021/03/21 01:08:41;;;;;;;26.13;17.65;;;5.40;99.90;;;6.58;90.74;101305.94;4980309;28;20030;-83
2021/03/21 01:11:21;;;;;;;28.77;17.92;;;5.40;99.90;;;6.55;91.27;101295.47;4980740;28;20042;-81
2021/03/21 01:13:47;;;;;;;25.65;17.75;;;5.40;99.90;;;6.44;91.71;101288.56;4979781;28;20038;-83
2021/03/21 01:16:23;;;;;;;27.73;19.73;;;5.30;99.90;;;6.39;92.48;101274.78;4998338;28;20023;-85
2021/03/21 01:18:52;;;;;;;30.40;19.15;;;5.30;99.90;;;6.34;92.65;101267.44;4992057;28;20385;-83
2021/03/21 01:21:23;;;;;;;28.95;18.92;;;5.30;99.90;;;6.45;92.46;101272.72;4988441;28;20033;-83
2021/03/21 01:23:49;;;;;;;26.90;18.55;;;5.30;99.90;;;6.46;92.53;101255.75;4996857;28;20034;-84
2021/03/21 01:26:25;;;;;;;30.23;19.23;;;5.30;99.90;;;6.56;92.12;101257.44;4998011;28;20073;-85
2021/03/21 01:28:51;;;;;;;31.95;18.80;;;5.30;99.90;;;6.45;92.87;101250.53;4997667;28;20034;-84
2021/03/21 01:31:23;;;;;;;30.08;19.42;;;5.30;99.90;;;6.49;92.37;101252.34;4997984;28;20030;-83
2021/03/21 01:33:51;;;;;;;31.85;19.83;;;5.30;99.90;;;6.35;93.36;101254.38;4998174;28;20053;-84
2021/03/21 01:36:27;;;;;;;28.23;19.15;;;5.30;99.90;;;6.32;93.90;101239.16;4997337;28;20030;-84
2021/03/21 01:38:57;;;;;;;28.95;18.45;;;5.30;99.90;;;6.39;93.26;101227.63;4997772;28;20058;-85
2021/03/21 01:41:39;;;;;;;29.88;18.70;;;5.30;99.90;;;6.35;93.52;101207.22;4997744;28;20053;-86
2021/03/21 01:44:13;;;;;;;28.40;18.85;;;5.20;99.90;;;6.38;93.93;101203.81;4997880;28;20146;-82
2021/03/21 01:47:01;;;;;;;29.17;19.05;;;5.20;99.90;;;6.24;94.65;101183.63;4997487;28;20128;-82
2021/03/21 01:49:43;;;;;;;31.40;19.17;;;5.20;99.90;;;6.25;93.99;101179.72;4997598;28;20090;-85
2021/03/21 01:52:33;;;;;;;30.63;19.67;;;5.20;99.90;;;6.34;93.47;101183.38;4998984;28;20121;-86
2021/03/21 01:55:07;;;;;;;29.98;19.50;;;5.20;99.90;;;6.27;93.95;101181.03;4998656;28;20053;-84
2021/03/21 01:57:33;;;;;;;30.15;19.58;;;5.20;99.90;;;6.31;93.74;101172.91;4997401;28;20030;-85
2021/03/21 01:59:59;;;;;;;32.78;19.92;;;5.20;99.90;;;6.31;93.95;101178.47;5013434;28;20081;-84
2021/03/21 02:02:26;;;;;;;31.08;19.08;;;5.10;99.90;;;6.35;94.09;101180.28;4997560;28;20026;-83
2021/03/21 02:04:52;;;;;;;29.65;19.23;;;5.20;99.90;;;6.29;93.83;101175.19;4997650;28;20383;-84
2021/03/21 02:07:59;;;;;;;29.30;19.25;;;5.20;99.90;;;6.27;93.74;101177.44;4997427;28;20026;-83
2021/03/21 02:11:29;;;;;;;28.27;19.17;;;5.20;99.90;;;6.35;93.32;101179.47;4995673;28;20029;-85
2021/03/21 02:14:16;;;;;;;27.73;17.58;;;5.20;99.90;;;6.38;93.70;101183.56;4903236;29;20148;-85
2021/03/21 02:17:18;;;;;;;27.35;18.08;;;5.20;99.90;;;6.36;93.53;101181.09;4975463;28;20404;-85
2021/03/21 02:20:28;;;;;;;26.20;16.83;;;5.20;99.90;;;6.30;93.79;101174.03;4994310;28;20034;-82
2021/03/21 02:23:42;;;;;;;27.85;18.50;;;5.30;99.90;;;6.37;93.80;101174.41;4973717;28;20109;-84
2021/03/21 02:26:43;;;;;;;30.20;18.67;;;5.20;99.90;;;6.38;93.93;101176.06;4994131;28;20037;-82
2021/03/21 02:29:47;;;;;;;31.73;18.73;;;5.30;99.90;;;6.44;93.11;101163.69;4993768;28;20096;-83
2021/03/21 02:32:42;;;;;;;28.65;18.35;;;5.30;99.90;;;6.42;93.75;101159.59;4978106;28;20030;-83
2021/03/21 02:35:47;;;;;;;28.65;17.92;;;5.20;99.90;;;6.47;93.01;101168.59;4980719;28;20054;-85
2021/03/21 02:38:40;;;;;;;25.90;15.90;;;5.30;99.90;;;6.41;93.52;101169.88;4982092;28;20038;-85
2021/03/21 02:41:27;;;;;;;26.42;14.77;;;5.30;99.90;;;6.46;92.77;101166.94;4983577;28;20031;-84
2021/03/21 02:44:07;;;;;;;27.00;15.82;;;5.30;99.90;;;6.34;93.39;101153.69;4982151;28;20050;-83
2021/03/21 02:46:46;;;;;;;29.15;17.05;;;5.30;99.90;;;6.30;93.54;101149.06;4998978;28;20041;-83
2021/03/21 02:49:25;;;;;;;32.20;16.92;;;5.30;99.90;;;6.38;93.07;101150.25;4998758;28;20521;-84
2021/03/21 02:52:05;;;;;;;34.50;17.77;;;5.20;99.90;;;6.32;93.73;101144.84;4984296;28;20121;-86
2021/03/21 02:54:42;;;;;;;34.38;18.85;;;5.20;99.90;;;6.41;93.54;101144.06;4983397;28;20031;-85
2021/03/21 02:57:21;;;;;;;35.47;18.77;;;5.20;99.90;;;6.41;93.11;101139.34;4986166;28;20031;-87
2021/03/21 02:59:55;;;;;;;37.53;19.35;;;5.20;99.90;;;6.41;93.18;101125.47;4997768;28;20030;-84
2021/03/21 03:02:29;;;;;;;42.35;22.25;;;5.30;99.90;;;6.43;93.46;101127.91;4982520;28;20034;-82
2021/03/21 03:05:16;;;;;;;37.03;21.08;;;5.30;99.90;;;6.51;93.47;101127.16;4982941;28;20062;-83
2021/03/21 03:07:54;;;;;;;44.65;22.23;;;5.30;99.90;;;6.53;93.32;101127.66;4982619;28;20037;-85
2021/03/21 03:10:32;;;;;;;43.08;23.60;;;5.30;99.90;;;6.49;93.49;101132.19;4996630;28;20090;-82
2021/03/21 03:13:24;;;;;;;47.28;25.40;;;5.30;99.90;;;6.50;93.49;101125.50;4981451;28;20029;-85
2021/03/21 03:16:02;;;;;;;50.08;26.08;;;5.30;99.90;;;6.42;94.22;101123.53;4982343;28;20506;-85
2021/03/21 03:19:23;;;;;;;47.15;25.77;;;5.30;99.90;;;6.53;93.39;101124.88;4997737;28;20058;-83
2021/03/21 03:22:40;;;;;;;47.42;25.52;;;5.30;99.90;;;6.33;94.29;101129.00;4967435;28;20494;-82
2021/03/21 03:25:28;;;;;;;49.83;26.55;;;5.30;99.90;;;6.49;93.88;101104.44;4982318;28;20035;-82
2021/03/21 03:28:50;;;;;;;50.60;27.23;;;5.30;99.90;;;6.42;94.09;101110.47;4982878;28;20034;-81
2021/03/21 03:31:45;;;;;;;50.60;26.42;;;5.30;99.90;;;6.49;93.76;101113.59;4997013;28;20034;-85
2021/03/21 03:34:11;;;;;;;49.80;25.80;;;5.30;99.90;;;6.45;93.34;101101.50;5001816;28;20015;-84
2021/03/21 03:36:37;;;;;;;54.72;27.73;;;5.30;99.90;;;6.47;93.70;101113.09;5013018;28;20035;-85
2021/03/21 03:39:04;;;;;;;50.47;27.02;;;5.40;99.90;;;6.42;93.76;101107.69;4998243;28;20030;-82
2021/03/21 03:41:57;;;;;;;47.72;26.48;;;5.40;99.90;;;6.44;93.38;101110.13;4995500;28;20035;-84
2021/03/21 03:45:21;;;;;;;45.00;25.80;;;5.40;99.90;;;6.49;93.36;101116.38;4979818;28;20064;-84
2021/03/21 03:48:53;;;;;;;42.60;24.50;;;5.40;99.90;;;6.52;92.85;101099.06;4979271;28;20066;-83
2021/03/21 03:51:50;;;;;;;45.47;24.63;;;5.40;99.90;;;6.50;92.88;101109.69;4980334;28;20042;-85
2021/03/21 03:54:41;;;;;;;46.17;26.42;;;5.40;99.90;;;6.49;93.20;101102.47;4997141;28;20509;-84
2021/03/21 03:57:29;;;;;;;44.47;25.75;;;5.40;99.90;;;6.45;92.69;101109.84;4982647;28;20026;-84
2021/03/21 04:00:26;;;;;;;47.80;26.30;;;5.40;99.90;;;6.55;92.40;101108.75;4998308;28;20027;-85
2021/03/21 04:03:23;;;;;;;;;;;5.50;99.90;;;6.51;92.99;101111.34;4998124;28;20090;-83
2021/03/21 04:05:59;;;;;;;;;;;5.50;99.90;;;6.50;93.08;101106.09;4996653;28;19910;-82
2021/03/21 04:08:55;;;;;;;44.70;24.10;;;5.40;99.90;;;6.36;93.39;101106.19;4979938;28;19958;-82
2021/03/21 04:11:38;;;;;;;45.45;23.27;;;5.40;99.90;;;6.43;93.09;101114.88;4980984;28;20487;-82
2021/03/21 04:14:26;;;;;;;44.42;23.50;;;5.40;99.90;;;6.41;93.14;101108.00;4980136;28;20046;-84
2021/03/21 04:17:34;;;;;;;41.15;22.48;;;5.40;99.90;;;6.35;93.58;101108.16;4980880;28;20035;-84
2021/03/21 04:20:17;;;;;;;40.60;22.75;;;5.40;99.90;;;6.29;94.02;101103.06;4970835;28;20039;-84
2021/03/21 04:23:15;;;;;;;38.22;21.88;;;5.40;99.90;;;6.40;93.61;101096.09;4979876;28;20065;-83
2021/03/21 04:25:55;;;;;;;35.55;21.35;;;5.40;99.90;;;6.39;93.78;101091.66;4978887;28;20035;-83
2021/03/21 04:28:40;;;;;;;41.65;22.85;;;5.30;99.90;;;6.35;94.11;101096.25;4979437;28;20034;-84
2021/03/21 04:31:14;;;;;;;35.97;21.23;;;5.40;99.90;;;6.36;93.71;101095.06;4979335;28;20042;-85
2021/03/21 04:33:52;;;;;;;34.42;19.98;;;5.40;99.90;;;6.42;93.68;101098.56;4979753;28;20042;-84
2021/03/21 04:36:27;;;;;;;39.90;22.42;;;5.40;99.90;;;6.39;93.83;101097.22;4979015;28;20031;-84
2021/03/21 04:39:07;;;;;;;35.70;21.15;;;5.40;99.90;;;6.35;94.21;101091.50;4979333;28;20035;-83
2021/03/21 04:41:45;;;;;;;36.25;20.20;;;5.40;99.90;;;6.39;93.61;101102.75;4979470;28;20125;-84
2021/03/21 04:44:30;;;;;;;34.83;20.02;;;5.40;99.90;;;6.35;93.55;101110.09;4980346;28;20027;-85
2021/03/21 04:47:23;;;;;;;33.22;20.27;;;5.40;99.90;;;6.33;94.04;101096.53;4980292;28;20039;-85
2021/03/21 04:49:49;;;;;;;36.35;20.15;;;5.40;99.90;;;6.36;93.62;101098.69;4982167;28;20030;-85
2021/03/21 04:53:16;;;;;;;33.53;21.33;;;5.40;99.90;;;6.34;94.39;101095.41;5040321;23;20988;-84
2021/03/21 04:55:52;;;;;;;32.78;19.75;;;5.30;99.90;;;6.41;94.32;101108.84;5036535;28;20041;-85
2021/03/21 04:58:40;;;;;;;34.95;20.60;;;5.40;99.90;;;6.35;94.30;101097.06;5018007;28;20029;-86
2021/03/21 05:01:53;;;;;;;31.08;19.92;;;5.40;99.90;;;6.42;93.97;101088.28;5036402;28;20021;-85
2021/03/21 05:04:27;;;;;;;35.47;21.40;;;5.40;99.90;;;6.47;94.28;101088.13;5000375;28;20065;-84
2021/03/21 05:07:26;;;;;;;34.35;20.95;;;5.40;99.90;;;6.46;93.72;101092.03;4997178;28;20033;-84
2021/03/21 05:10:07;;;;;;;34.60;21.38;;;5.40;99.90;;;6.45;94.21;101089.59;4998060;28;20040;-84
2021/03/21 05:12:44;;;;;;;35.70;21.70;;;5.40;99.90;;;6.43;94.48;101084.34;4997501;28;20391;-86
2021/03/21 05:15:40;;;;;;;35.15;21.17;;;5.40;99.90;;;6.40;95.17;101089.72;5015603;28;20485;-84
2021/03/21 05:19:02;;;;;;;34.30;21.77;;;5.40;99.90;;;6.36;95.80;101083.97;4998713;28;20512;-86
2021/03/21 05:21:43;;;;;;;36.60;22.20;;;5.40;99.90;;;6.30;95.64;101082.47;5000095;28;20049;-85
2021/03/21 05:24:33;;;;;;;36.38;22.10;;;5.40;99.90;;;6.23;96.30;101084.88;4998528;28;20034;-84
2021/03/21 05:27:18;;;;;;;36.38;22.10;;;5.40;99.90;;;6.30;96.79;101088.03;5016623;28;20041;-84
2021/03/21 05:30:01;;;;;;;34.53;21.88;;;5.30;99.90;;;6.36;96.20;101075.66;5002323;28;20037;-82
2021/03/21 05:32:28;;;;;;;31.60;21.38;;;5.30;99.90;;;6.34;96.86;101073.22;5028609;28;20105;-82
2021/03/21 05:34:57;;;;;;;35.60;22.58;;;5.30;99.90;;;6.39;96.75;101080.56;5007601;28;20101;-81
2021/03/21 05:38:03;;;;;;;33.47;20.77;;;5.30;99.90;;;6.32;97.01;101080.22;5029915;28;20025;-83
2021/03/21 05:41:16;;;;;;;31.23;20.17;;;5.40;99.90;;;6.38;96.97;101069.81;5017253;28;20037;-85
2021/03/21 05:44:13;;;;;;;31.05;19.83;;;5.30;99.90;;;6.34;97.08;101080.72;5001086;28;20030;-81
2021/03/21 05:47:06;;;;;;;26.63;17.48;;;5.30;99.90;;;6.24;97.04;101065.16;4996672;28;20536;-83
2021/03/21 05:50:43;;;;;;;26.10;17.58;;;5.40;99.90;;;6.35;96.68;101055.44;5014743;28;20137;-82
2021/03/21 05:53:55;;;;;;;27.25;17.40;;;5.40;99.90;;;6.32;96.96;101086.56;5015618;28;20042;-82
2021/03/21 05:57:05;;;;;;;21.08;15.25;;;5.40;99.90;;;6.36;97.01;101078.44;5015266;28;20328;-83
2021/03/21 06:00:34;;;;;;;22.27;15.23;;;5.40;99.90;;;6.45;96.39;101081.25;4997483;28;20089;-82
2021/03/21 06:03:51;;;;;;;19.02;12.05;;;5.40;99.90;;;6.35;96.68;101083.19;5007864;28;20110;-83
2021/03/21 06:07:31;;;;;;;14.88;11.15;;;5.50;99.90;;;6.43;96.24;101081.56;5009207;28;20038;-83
2021/03/21 06:10:27;;;;;;;15.82;9.75;;;5.50;99.90;;;6.57;95.33;101073.97;4998969;28;20065;-83
2021/03/21 06:13:33;;;;;;;12.50;9.27;;;5.50;99.90;;;6.62;94.92;101079.34;4994869;28;20058;-83
2021/03/21 06:16:20;;;;;;;12.40;8.60;;;5.50;99.90;;;6.70;94.31;101086.09;4996693;28;20038;-82
2021/03/21 06:19:38;;;;;;;13.30;8.25;;;5.60;99.90;;;6.71;94.30;101077.41;5008056;28;20053;-82
2021/03/21 06:22:33;;;;;;;10.23;7.80;;;5.60;99.90;;;6.78;93.70;101094.44;4990388;28;20033;-83
2021/03/21 06:25:55;;;;;;;13.10;8.38;;;5.60;99.90;;;6.83;93.10;101091.53;4990214;28;20041;-82
2021/03/21 06:28:45;;;;;;;9.70;7.57;;;5.70;99.90;;;6.84;92.92;101092.31;5006367;28;20049;-85
2021/03/21 06:32:02;;;;;;;11.90;8.00;;;5.70;99.90;;;6.89;92.97;101076.34;4990380;28;20026;-84
2021/03/21 06:35:23;;;;;;;9.30;7.35;;;5.70;99.90;;;6.87;92.88;101081.38;5005895;28;20054;-84
2021/03/21 06:38:22;;;;;;;10.13;7.60;;;5.80;99.90;;;6.90;92.61;101089.06;5005846;28;20066;-83
2021/03/21 06:41:50;;;;;;;13.02;8.02;;;5.80;99.90;;;7.07;92.39;101082.75;5005890;28;20057;-84
2021/03/21 06:44:54;;;;;;;;;;;5.90;99.90;;;7.11;92.24;101083.72;4992120;28;20053;-83
2021/03/21 06:47:51;;;;;;;10.13;7.75;;;5.90;99.90;;;7.12;91.92;101084.56;4994523;28;19921;-85
2021/03/21 06:51:06;;;;;;;10.13;7.43;;;5.90;99.90;;;7.03;92.35;101094.84;5009635;28;20037;-83
2021/03/21 06:53:45;;;;;;;11.27;7.00;;;6.00;99.90;;;6.92;92.71;101086.00;5009251;28;20532;-84
2021/03/21 06:57:15;;;;;;;10.73;7.30;;;5.90;99.90;;;6.90;93.01;101086.28;5010158;28;20038;-84
2021/03/21 07:00:16;;;;;;;11.52;7.72;;;5.90;99.90;;;6.96;93.44;101084.22;4991562;28;20035;-84
2021/03/21 07:04:03;;;;;;;9.30;7.07;;;5.90;99.90;;;6.98;93.33;101089.41;4991014;28;20037;-84
2021/03/21 07:07:27;;;;;;;10.70;6.82;;;5.90;99.90;;;6.96;93.24;101077.81;5007151;28;20022;-83
2021/03/21 07:10:40;;;;;;;13.75;7.18;;;6.00;99.90;;;7.07;92.88;101093.84;4992206;28;20030;-84
2021/03/21 07:13:50;;;;;;;11.35;6.97;;;6.00;99.90;;;7.11;92.82;101097.63;4992901;28;20097;-83
2021/03/21 07:17:44;;;;;;;13.38;6.95;;;6.00;99.90;;;6.98;92.26;101092.19;4991709;28;20038;-83
2021/03/21 07:20:40;;;;;;;10.20;7.03;;;6.00;99.90;;;7.17;92.46;101106.63;4927558;29;20040;-85
2021/03/21 07:24:08;;;;;;;13.40;7.43;;;6.10;99.90;;;7.26;91.89;101111.03;5009682;28;20030;-83
2021/03/21 07:27:03;;;;;;;;;;;6.10;99.90;;;7.07;92.23;101109.69;5011637;28;20037;-83
2021/03/21 07:29:51;;;;;;;9.88;6.45;;;6.10;99.90;;;7.16;91.64;101105.00;5011728;28;19955;-85
2021/03/21 07:33:05;;;;;;;10.38;7.22;;;6.10;99.90;;;7.16;92.01;101121.66;4995641;28;20041;-84
2021/03/21 07:36:05;;;;;;;9.20;6.90;;;6.10;99.90;;;7.18;92.31;101131.31;5011815;28;20122;-84
2021/03/21 07:39:25;;;;;;;9.52;6.45;;;6.10;99.90;;;7.24;92.89;101132.78;5011831;28;20058;-84
2021/03/21 07:42:45;;;;;;;7.93;6.47;;;6.10;99.90;;;7.23;92.35;101117.25;4992749;28;20514;-84
2021/03/21 07:45:29;;;;;;;9.68;6.20;;;6.10;99.90;;;7.30;92.56;101119.56;5009794;28;20052;-84
2021/03/21 07:48:34;;;;;;;11.90;5.80;;;6.20;99.90;;;7.41;92.71;101124.47;4991547;28;20048;-84
2021/03/21 07:51:46;;;;;;;10.82;6.22;;;6.20;99.90;;;7.37;92.94;101131.84;4992530;28;20093;-83
2021/03/21 07:54:35;;;;;;;10.18;5.97;;;6.20;99.90;;;7.28;92.09;101127.41;5008570;28;20105;-85
2021/03/21 07:57:29;;;;;;;8.18;5.25;;;6.20;99.90;;;7.37;91.66;101123.50;5009826;28;20031;-83
2021/03/21 08:00:00;;;;;;;9.30;5.60;;;6.20;99.90;;;7.45;91.54;101137.72;4991731;28;20065;-84
2021/03/21 08:02:28;;;;;;;8.57;6.45;;;6.20;99.90;;;7.44;92.01;101123.00;5011216;28;20037;-83
2021/03/21 08:05:16;;;;;;;11.50;6.03;;;6.30;99.90;;;7.49;91.60;101131.19;5010031;28;20064;-83
2021/03/21 08:07:49;;;;;;;9.63;5.78;;;6.30;99.90;;;7.57;91.96;101141.50;4999932;28;20029;-86
2021/03/21 08:10:30;;;;;;;8.77;5.97;;;6.30;99.90;;;7.69;90.93;101143.63;5030286;28;20042;-82
2021/03/21 08:13:40;;;;;;;10.95;6.88;;;6.40;99.90;;;7.74;91.27;101143.44;5012233;28;20105;-84
2021/03/21 08:16:20;;;;;;;11.02;5.82;;;6.50;99.90;;;7.70;90.46;101140.53;5014287;28;20123;-85
2021/03/21 08:18:49;;;;;;;6.95;4.97;;;6.50;99.90;;;7.71;90.63;101150.47;5028972;28;20125;-87
2021/03/21 08:21:33;;;;;;;7.80;4.72;;;6.50;99.90;;;7.66;89.67;101155.41;5012814;28;20030;-83
2021/03/21 08:24:41;;;;;;;7.22;4.15;;;6.50;99.90;;;7.53;89.34;101165.53;5012623;28;20030;-83
2021/03/21 08:27:27;;;;;;;6.78;3.83;;;6.50;99.90;;;7.49;89.47;101163.72;5010871;28;20036;-84
2021/03/21 08:30:12;;;;;;;7.45;4.00;;;6.40;99.90;;;7.53;89.09;101159.97;5012341;28;20030;-81
2021/03/21 08:33:04;;;;;;;8.80;5.45;;;6.50;99.90;;;7.59;89.34;101155.88;5035487;28;20014;-82
2021/03/21 08:35:38;;;;;;;9.45;3.47;;;6.50;99.90;;;7.74;88.59;101141.47;5018554;28;20385;-84
2021/03/21 08:38:26;;;;;;;6.65;3.40;;;6.60;99.90;;;7.69;86.95;101143.63;5029996;28;20032;-85
2021/03/21 08:41:05;;;;;;;7.20;3.00;;;6.60;99.90;;;7.80;86.33;101151.28;5008728;28;20026;-85
2021/03/21 08:43:36;;;;;;;9.07;2.38;;;6.60;99.90;;;7.73;83.43;101161.28;5010054;28;20090;-84
2021/03/21 08:46:02;;;;;;;9.70;2.80;;;6.60;99.90;;;7.56;85.01;101164.06;5007227;28;20335;-88
2021/03/21 08:48:41;;;;;;;5.95;2.55;;;6.60;99.90;;;7.63;85.95;101162.44;5003229;28;20041;-88
2021/03/21 08:51:12;;;;;;;11.23;2.60;;;6.50;99.90;;;7.57;86.43;101172.06;5004974;28;20034;-87
2021/03/21 08:54:00;;;;;;;7.82;1.80;;;6.50;99.90;;;7.50;84.76;101173.69;5026165;28;20416;-87
2021/03/21 08:56:41;;;;;;;6.10;1.95;;;6.50;99.90;;;7.54;84.07;101167.16;5022949;28;20436;-86
2021/03/21 08:59:26;;;;;;;10.60;2.30;;;6.40;99.90;;;7.54;83.45;101160.78;5020160;28;20438;-87
2021/03/21 09:02:17;;;;;;;9.85;1.90;;;6.40;99.90;;;7.49;81.67;101164.53;5009079;28;20038;-87
2021/03/21 09:04:48;;;;;;;12.35;2.22;;;6.50;99.90;;;7.68;81.35;101164.22;5004792;28;20034;-81
2021/03/21 09:07:33;;;;;;;10.80;1.92;;;6.50;99.90;;;7.68;80.43;101158.66;5027988;28;20086;-84
2021/03/21 09:10:21;;;;;;;12.40;2.47;;;6.60;99.90;;;7.82;80.29;101156.53;5011170;28;20037;-81
2021/03/21 09:13:13;;;;;;;12.60;2.17;;;6.70;99.90;;;7.90;79.36;101153.75;5009869;28;20034;-82
2021/03/21 09:16:10;;;;;;;8.90;1.60;;;6.70;99.90;;;8.19;78.40;101146.66;5011552;28;20093;-85
2021/03/21 09:18:43;;;;;;;12.20;2.40;;;6.90;99.90;;;8.33;76.38;101150.94;5011714;28;20033;-85
2021/03/21 09:21:27;;;;;;;7.93;2.22;;;7.10;99.90;;;8.36;76.16;101146.69;5013130;28;20037;-84
2021/03/21 09:24:02;;;;;;;9.25;1.55;;;7.20;99.90;;;8.33;75.78;101147.34;5009494;28;20033;-86
2021/03/21 09:26:43;;;;;;;8.13;2.80;;;7.20;99.90;;;8.34;75.61;101144.25;5011105;28;20033;-83
2021/03/21 09:29:33;;;;;;;9.65;2.08;;;7.30;99.90;;;8.73;74.79;101147.88;5009953;28;20277;-85
2021/03/21 09:32:34;;;;;;;16.92;2.50;;;7.50;99.90;;;8.82;74.50;101143.91;5011955;28;20064;-86
2021/03/21 09:35:54;;;;;;;10.45;2.47;;;7.70;99.90;;;8.85;73.81;101151.59;5028843;28;20040;-84
2021/03/21 09:38:40;;;;;;;10.98;1.98;;;7.80;99.90;;;8.43;74.14;101149.78;5027950;28;20026;-85
2021/03/21 09:41:15;;;;;;;12.57;2.25;;;7.50;99.90;;;8.13;74.15;101151.59;5013678;28;20036;-84
2021/03/21 09:43:42;;;;;;;13.98;2.47;;;7.30;99.90;;;8.14;75.20;101169.94;5014177;28;20055;-87
2021/03/21 09:47:10;;;;;;;14.13;2.55;;;7.10;99.90;;;8.24;75.37;101160.44;5029592;28;20239;-84
2021/03/21 09:50:25;;;;;;;;;;;7.10;99.90;;;8.43;74.30;101161.72;5008724;28;20044;-86
2021/03/21 09:53:36;;;;;;;11.70;2.13;;;7.30;99.90;;;8.49;73.91;101165.16;5015705;28;19929;-86
2021/03/21 09:56:28;;;;;;;9.27;2.53;;;7.30;99.90;;;8.54;74.04;101158.59;5016895;28;20101;-86
2021/03/21 09:59:57;;;;;;;15.15;3.28;;;7.30;99.90;;;8.17;73.30;101152.59;5016569;28;20026;-86
2021/03/21 10:02:44;;;;;;;19.63;3.00;;;7.20;99.90;;;8.21;72.55;101161.09;5029024;28;20122;-87
2021/03/21 10:05:53;;;;;;;17.30;3.67;;;7.20;99.90;;;8.07;72.12;101149.31;5009725;28;20030;-87
2021/03/21 10:08:52;;;;;;;20.35;2.95;;;7.10;99.90;;;7.99;71.77;101167.66;5008288;28;20121;-87
2021/03/21 10:11:33;;;;;;;21.85;3.40;;;7.10;99.90;;;8.01;71.68;101173.72;5026109;28;20498;-86
2021/03/21 10:14:23;;;;;;;18.38;3.10;;;7.10;99.90;;;8.03;71.60;101174.19;5007560;28;20093;-86
2021/03/21 10:16:58;;;;;;;12.30;2.95;;;7.10;99.90;;;8.05;71.43;101187.78;5005500;28;20034;-86
2021/03/21 10:19:53;;;;;;;17.25;3.30;;;7.10;99.90;;;8.17;71.70;101176.81;5005934;28;20164;-86
2021/03/21 10:22:29;;;;;;;12.13;3.28;;;7.10;99.90;;;8.20;71.13;101176.16;5006753;28;20129;-87
2021/03/21 10:25:01;;;;;;;;;;;7.10;99.90;;;8.19;71.10;101180.06;5008019;28;20064;-87
2021/03/21 10:27:35;;;;;;;15.95;3.15;;;7.10;99.90;;;8.15;70.88;101191.06;5010517;28;19909;-86
2021/03/21 10:30:33;;;;;;;19.45;3.20;;;7.10;99.90;;;8.07;70.70;101186.31;5011017;28;20014;-87
2021/03/21 10:33:00;;;;;;;31.50;7.63;;;7.10;99.90;;;8.08;71.32;101193.50;5008742;28;20101;-87
2021/03/21 10:35:29;;;;;;;18.58;4.32;;;7.10;99.90;;;8.09;70.50;101194.34;5009779;28;20029;-86
2021/03/21 10:38:54;;;;;;;24.75;4.22;;;7.20;99.90;;;8.12;69.75;101196.47;5006818;28;20097;-85
2021/03/21 10:42:02;;;;;;;26.35;4.15;;;7.10;99.90;;;8.01;69.95;101195.16;4967775;28;20038;-88
2021/03/21 10:44:33;;;;;;;22.73;4.90;;;7.10;99.90;;;7.92;70.11;101201.53;5011762;28;20121;-86
2021/03/21 10:47:08;;;;;;;20.20;3.15;;;7.00;99.90;;;8.00;70.70;101205.44;5008833;28;20050;-87
2021/03/21 10:49:59;;;;;;;19.15;4.32;;;7.00;99.90;;;7.86;71.21;101215.94;5018232;28;20038;-87
2021/03/21 10:52:38;;;;;;;23.25;3.90;;;6.90;99.90;;;7.92;70.98;101215.44;5051255;22;20068;-84
2021/03/21 10:55:14;;;;;;;25.17;4.10;;;7.00;99.90;;;8.06;68.70;101220.81;5029220;28;20069;-86
2021/03/21 10:57:49;;;;;;;;;;;7.10;99.90;;;8.13;66.04;101212.81;5032746;28;20033;-86
2021/03/21 11:00:33;;;;;;;27.20;4.93;;;7.20;99.90;;;8.27;64.82;101212.66;5033788;28;19909;-86
2021/03/21 11:03:02;;;;;;;19.98;4.32;;;7.30;99.90;;;8.23;65.43;101203.31;5028885;28;20042;-87
2021/03/21 11:05:45;;;;;;;23.02;4.88;;;7.30;99.90;;;8.17;65.62;101201.84;5024692;28;20093;-85
2021/03/21 11:08:14;;;;;;;35.58;5.53;;;7.20;99.90;;;8.33;67.03;101197.44;5030779;28;20053;-86
2021/03/21 11:11:12;;;;;;;24.63;5.15;;;7.20;99.90;;;8.20;65.40;101204.78;5030728;28;20061;-85
2021/03/21 11:13:40;;;;;;;26.08;4.82;;;7.30;99.90;;;8.31;65.81;101205.31;5032660;28;20057;-85
2021/03/21 11:16:16;;;;;;;22.85;4.03;;;7.30;99.90;;;8.24;65.46;101222.47;5033759;28;20030;-83
2021/03/21 11:18:53;;;;;;;25.45;4.60;;;7.30;99.90;;;8.23;64.97;101211.66;5029884;28;20022;-83
2021/03/21 11:21:27;;;;;;;22.00;4.18;;;7.30;99.90;;;8.47;64.41;101206.44;5023482;28;20025;-82
2021/03/21 11:24:03;;;;;;;20.30;4.72;;;7.40;99.90;;;8.63;62.76;101207.53;5020143;28;20136;-84
2021/03/21 11:26:37;;;;;;;24.90;5.25;;;7.60;99.90;;;8.78;61.71;101203.38;5016691;28;20041;-84
2021/03/21 11:29:06;;;;;;;27.15;5.00;;;7.80;99.90;;;9.05;60.35;101205.75;5020003;28;20065;-85
2021/03/21 11:31:53;;;;;;;26.08;4.32;;;8.10;99.90;;;9.42;59.29;101188.16;5019602;28;20389;-82
2021/03/21 11:34:35;;;;;;;20.60;4.60;;;8.40;99.90;;;9.67;58.73;101191.13;5020359;28;20057;-86
2021/03/21 11:37:21;;;;;;;24.15;3.80;;;8.60;99.90;;;9.62;57.92;101194.94;5025242;28;20044;-85
2021/03/21 11:40:00;;;;;;;24.13;4.35;;;8.60;99.90;;;9.57;59.03;101183.97;5023631;28;20481;-86
2021/03/21 11:42:36;;;;;;;20.42;4.60;;;8.50;99.90;;;9.64;58.75;101183.44;5028463;28;20030;-86
2021/03/21 11:45:22;;;;;;;20.73;4.20;;;8.50;99.90;;;9.66;58.35;101187.53;5030309;28;20041;-86